createdAt,value
2023-02-24T00:02:01.036Z,11.64
2023-02-24T00:04:31.448Z,11.42
2023-02-24T00:07:01.538Z,11.91
2023-02-24T00:09:31.506Z,11.49
2023-02-24T00:12:01.510Z,11.63
2023-02-24T00:14:32.470Z,11.22
2023-02-24T00:17:01.185Z,11.54
2023-02-24T00:19:32.813Z,11.07
2023-02-24T00:22:03.670Z,11.30
2023-02-24T00:24:32.435Z,10.99
2023-02-24T00:27:02.792Z,10.88
2023-02-24T00:29:32.630Z,11.02
2023-02-24T00:32:01.534Z,11.32
2023-02-24T00:34:31.577Z,11.80
2023-02-24T00:37:00.509Z,11.87
2023-02-24T00:39:33.618Z,11.82
2023-02-24T00:42:05.904Z,11.90
2023-02-24T00:44:36.092Z,11.52
2023-02-24T00:47:06.545Z,11.85
2023-02-24T00:49:42.447Z,11.03
2023-02-24T00:52:13.839Z,11.56
2023-02-24T00:54:43.911Z,10.78
2023-02-24T00:57:12.829Z,10.04
2023-02-24T00:59:41.462Z,10.21
2023-02-24T01:02:11.608Z,10.61
2023-02-24T01:04:39.917Z,10.71
2023-02-24T01:07:11.239Z,10.89
2023-02-24T01:09:41.295Z,10.88
2023-02-24T01:12:29.899Z,10.84
2023-02-24T01:14:58.470Z,11.22
2023-02-24T01:17:26.770Z,10.99
2023-02-24T01:19:55.211Z,11.39
2023-02-24T01:22:23.995Z,11.38
2023-02-24T01:24:52.375Z,11.22
2023-02-24T01:27:22.380Z,10.91
2023-02-24T01:29:50.836Z,11.18
2023-02-24T01:32:22.290Z,11.39
2023-02-24T01:34:53.622Z,11.33
2023-02-24T01:37:22.650Z,11.11
2023-02-24T01:39:51.694Z,10.92
2023-02-24T01:42:24.107Z,11.02
2023-02-24T01:45:26.418Z,11.23
2023-02-24T01:47:58.597Z,11.25
2023-02-24T01:50:27.952Z,11.46
2023-02-24T01:53:00.217Z,11.54
2023-02-24T01:55:32.865Z,11.70
2023-02-24T01:58:07.290Z,11.34
2023-02-24T02:00:45.368Z,11.51
2023-02-24T02:03:25.469Z,10.73
2023-02-24T02:05:59.054Z,11.45
2023-02-24T02:08:27.754Z,11.60
2023-02-24T02:10:59.770Z,11.45
2023-02-24T02:13:30.669Z,11.68
2023-02-24T02:16:11.403Z,11.32
2023-02-24T02:18:48.992Z,11.37
2023-02-24T02:22:08.743Z,11.56
2023-02-24T02:24:48.877Z,11.55
2023-02-24T02:27:49.572Z,11.57
2023-02-24T02:30:47.870Z,11.60
2023-02-24T02:34:15.883Z,10.81
2023-02-24T02:36:56.983Z,11.14
2023-02-24T02:39:33.459Z,11.56
2023-02-24T02:42:14.751Z,11.60
2023-02-24T02:44:56.054Z,11.64
2023-02-24T02:47:30.059Z,11.57
2023-02-24T02:50:02.847Z,11.64
2023-02-24T02:52:37.838Z,11.60
2023-02-24T02:55:14.202Z,11.69
2023-02-24T02:57:47.973Z,11.54
2023-02-24T03:00:21.625Z,11.48
2023-02-24T03:02:55.486Z,11.72
2023-02-24T03:05:29.895Z,11.65
2023-02-24T03:08:04.945Z,11.60
2023-02-24T03:10:34.477Z,10.81
2023-02-24T03:13:07.498Z,11.24
2023-02-24T03:15:36.048Z,11.37
2023-02-24T03:18:10.863Z,11.39
2023-02-24T03:20:47.016Z,11.38
2023-02-24T03:23:20.970Z,11.57
2023-02-24T03:25:55.033Z,11.41
2023-02-24T03:28:30.520Z,11.21
2023-02-24T03:31:04.999Z,11.25
2023-02-24T03:33:37.964Z,10.51
2023-02-24T03:36:07.248Z,9.78
2023-02-24T03:38:38.722Z,9.62
2023-02-24T03:41:11.570Z,10.02
2023-02-24T03:43:46.241Z,10.19
2023-02-24T03:46:17.133Z,10.50
2023-02-24T03:48:52.259Z,10.29
2023-02-24T03:51:23.464Z,10.97
2023-02-24T03:54:06.198Z,11.03
2023-02-24T03:56:46.337Z,11.10
2023-02-24T03:59:28.144Z,10.92
2023-02-24T04:02:02.614Z,10.91
2023-02-24T04:04:38.529Z,10.55
2023-02-24T04:07:14.743Z,10.57
2023-02-24T04:09:51.758Z,10.68
2023-02-24T04:12:27.231Z,10.52
2023-02-24T04:15:04.788Z,10.69
2023-02-24T04:17:40.269Z,10.64
2023-02-24T04:20:15.896Z,10.72
2023-02-24T04:22:49.106Z,10.88
2023-02-24T04:25:24.804Z,10.58
2023-02-24T04:27:54.826Z,10.18
2023-02-24T04:30:24.485Z,10.70
2023-02-24T04:32:53.276Z,10.05
2023-02-24T04:35:23.095Z,10.46
2023-02-24T04:37:52.191Z,10.26
2023-02-24T04:40:24.303Z,10.60
2023-02-24T04:42:54.365Z,10.56
2023-02-24T04:45:26.617Z,10.68
2023-02-24T04:48:01.247Z,10.58
2023-02-24T04:50:32.028Z,10.48
2023-02-24T04:53:02.757Z,10.69
2023-02-24T04:55:34.258Z,10.37
2023-02-24T04:58:02.678Z,9.79
2023-02-24T05:00:35.608Z,9.92
2023-02-24T05:03:05.588Z,10.59
2023-02-24T05:05:34.629Z,10.50
2023-02-24T05:08:05.035Z,10.30
2023-02-24T05:10:39.526Z,10.15
2023-02-24T05:13:09.359Z,10.56
2023-02-24T05:15:42.127Z,10.93
2023-02-24T05:18:14.340Z,10.99
2023-02-24T05:21:02.609Z,10.94
2023-02-24T05:23:34.296Z,11.23
2023-02-24T05:26:08.595Z,11.21
2023-02-24T05:28:38.113Z,11.10
2023-02-24T05:31:09.040Z,11.28
2023-02-24T05:33:38.990Z,11.60
2023-02-24T05:36:09.989Z,11.30
2023-02-24T05:38:41.031Z,11.30
2023-02-24T05:41:17.055Z,11.40
2023-02-24T05:43:51.294Z,10.96
2023-02-24T05:46:19.685Z,11.12
2023-02-24T05:48:52.350Z,11.39
2023-02-24T05:51:20.822Z,11.22
2023-02-24T05:53:50.501Z,11.49
2023-02-24T05:56:20.134Z,10.81
2023-02-24T05:58:48.498Z,11.15
2023-02-24T06:01:19.470Z,11.25
2023-02-24T06:03:48.826Z,11.21
2023-02-24T06:06:17.987Z,11.31
2023-02-24T06:08:50.815Z,11.29
2023-02-24T06:11:21.866Z,11.32
2023-02-24T06:13:50.536Z,10.97
2023-02-24T06:16:20.272Z,11.04
2023-02-24T06:18:50.690Z,11.08
2023-02-24T06:21:19.503Z,11.19
2023-02-24T06:23:48.019Z,11.26
2023-02-24T06:26:19.623Z,11.46
2023-02-24T06:28:50.090Z,11.51
2023-02-24T06:31:18.730Z,11.76
2023-02-24T06:33:47.116Z,11.76
2023-02-24T06:36:16.340Z,11.80
2023-02-24T06:38:44.635Z,11.55
2023-02-24T06:41:13.022Z,11.75
2023-02-24T06:43:43.462Z,11.62
2023-02-24T06:46:15.520Z,11.86
2023-02-24T06:48:44.342Z,12.15
2023-02-24T06:51:15.719Z,11.95
2023-02-24T06:53:44.453Z,11.54
2023-02-24T06:56:16.094Z,11.20
2023-02-24T06:58:45.794Z,11.37
2023-02-24T07:01:18.028Z,11.41
2023-02-24T07:04:03.758Z,11.49
2023-02-24T07:06:34.660Z,10.91
2023-02-24T07:09:07.236Z,11.04
2023-02-24T07:11:36.874Z,11.45
2023-02-24T07:14:06.711Z,11.67
2023-02-24T07:16:37.365Z,11.49
2023-02-24T07:19:11.346Z,11.63
2023-02-24T07:21:40.734Z,11.86
2023-02-24T07:24:09.982Z,12.06
2023-02-24T07:26:41.743Z,12.04
2023-02-24T07:29:11.803Z,12.38
2023-02-24T07:31:43.109Z,12.30
2023-02-24T07:34:15.218Z,12.46
2023-02-24T07:36:50.351Z,12.88
2023-02-24T07:39:19.584Z,12.41
2023-02-24T07:41:49.738Z,11.99
2023-02-24T07:44:19.087Z,12.37
2023-02-24T07:46:49.465Z,12.72
2023-02-24T07:49:20.364Z,12.60
2023-02-24T07:51:52.770Z,12.62
2023-02-24T07:54:22.371Z,12.22
2023-02-24T07:56:57.808Z,12.08
2023-02-24T07:59:27.805Z,12.52
2023-02-24T08:01:58.264Z,12.23
2023-02-24T08:04:28.711Z,12.21
2023-02-24T08:07:02.967Z,12.31
2023-02-24T08:09:50.627Z,12.03
2023-02-24T08:12:22.016Z,12.87
2023-02-24T08:14:52.752Z,12.71
2023-02-24T08:17:24.270Z,12.81
2023-02-24T08:20:14.868Z,12.73
2023-02-24T08:22:47.003Z,13.06
2023-02-24T08:25:19.933Z,13.32
2023-02-24T08:28:07.530Z,14.23
2023-02-24T08:30:40.068Z,13.84
2023-02-24T08:33:16.109Z,14.71
2023-02-24T08:35:45.666Z,15.02
2023-02-24T08:38:16.068Z,14.65
2023-02-24T08:40:55.118Z,14.39
2023-02-24T08:43:33.227Z,14.05
2023-02-24T08:46:12.670Z,14.32
2023-02-24T08:48:45.076Z,14.24
2023-02-24T08:51:18.042Z,13.93
2023-02-24T08:53:47.611Z,13.35
2023-02-24T08:56:24.405Z,14.17
2023-02-24T08:58:57.267Z,14.42
2023-02-24T09:01:28.352Z,13.90
2023-02-24T09:04:02.009Z,13.72
2023-02-24T09:06:40.058Z,13.42
2023-02-24T09:09:22.671Z,13.65
2023-02-24T09:11:56.564Z,13.97
2023-02-24T09:14:28.487Z,13.67
2023-02-24T09:17:06.462Z,13.63
2023-02-24T09:19:57.948Z,13.74
2023-02-24T09:22:41.013Z,13.89
2023-02-24T09:25:26.041Z,14.25
2023-02-24T09:27:57.254Z,15.08
2023-02-24T09:30:37.725Z,15.02
2023-02-24T09:33:21.241Z,14.80
2023-02-24T09:36:03.423Z,14.88
2023-02-24T09:38:49.470Z,15.08
2023-02-24T09:41:32.234Z,14.91
2023-02-24T09:44:08.030Z,14.38
2023-02-24T09:46:42.523Z,14.60
2023-02-24T09:49:18.278Z,14.16
2023-02-24T09:51:58.017Z,14.08
2023-02-24T09:54:30.593Z,14.72
2023-02-24T09:57:09.429Z,14.93
2023-02-24T10:00:01.632Z,15.32
2023-02-24T10:02:44.582Z,15.45
2023-02-24T10:05:27.540Z,15.66
2023-02-24T10:08:00.714Z,15.53
2023-02-24T10:10:36.043Z,15.65
2023-02-24T10:13:14.989Z,15.63
2023-02-24T10:15:59.575Z,14.93
2023-02-24T10:18:34.374Z,15.24
2023-02-24T10:21:15.815Z,15.08
2023-02-24T10:23:59.729Z,15.34
2023-02-24T10:26:35.129Z,15.67
2023-02-24T10:29:22.656Z,15.95
2023-02-24T10:32:02.030Z,16.06
2023-02-24T10:34:32.963Z,16.10
2023-02-24T10:37:07.794Z,16.29
2023-02-24T10:39:42.638Z,15.61
2023-02-24T10:42:17.736Z,15.24
2023-02-24T10:45:01.421Z,15.51
2023-02-24T10:47:32.267Z,15.68
2023-02-24T10:50:03.371Z,14.93
2023-02-24T10:53:11.153Z,15.06
2023-02-24T10:56:14.773Z,15.00
2023-02-24T10:58:56.853Z,15.65
2023-02-24T11:01:43.743Z,15.47
2023-02-24T11:04:33.593Z,15.42
2023-02-24T11:07:09.909Z,15.49
2023-02-24T11:09:44.386Z,15.87
2023-02-24T11:12:38.463Z,16.10
2023-02-24T11:15:36.071Z,15.74
2023-02-24T11:18:06.949Z,15.86
2023-02-24T11:20:48.465Z,17.16
2023-02-24T11:23:21.646Z,18.21
2023-02-24T11:25:53.657Z,18.49
2023-02-24T11:28:46.994Z,19.00
2023-02-24T11:31:29.340Z,20.47
2023-02-24T11:34:07.687Z,21.37
2023-02-24T11:36:45.404Z,19.80
2023-02-24T11:39:38.004Z,20.32
2023-02-24T11:42:13.389Z,21.12
2023-02-24T11:44:51.825Z,20.66
2023-02-24T11:47:24.511Z,21.84
2023-02-24T11:49:56.990Z,21.20
2023-02-24T11:52:32.026Z,20.87
2023-02-24T11:55:03.996Z,21.12
2023-02-24T11:57:40.150Z,22.10
2023-02-24T12:00:20.339Z,22.74
2023-02-24T12:02:54.527Z,23.08
2023-02-24T12:05:26.752Z,22.72
2023-02-24T12:08:00.918Z,23.96
2023-02-24T12:10:33.203Z,24.51
2023-02-24T12:13:08.694Z,24.26
2023-02-24T12:15:46.849Z,23.65
2023-02-24T12:18:21.263Z,23.18
2023-02-24T12:20:52.290Z,23.46
2023-02-24T12:23:25.102Z,21.57
2023-02-24T12:26:08.954Z,23.21
2023-02-24T12:29:05.474Z,22.00
2023-02-24T12:31:45.896Z,22.18
2023-02-24T12:34:23.510Z,21.99
2023-02-24T12:37:11.560Z,22.82
2023-02-24T12:39:49.735Z,22.43
2023-02-24T12:42:27.508Z,23.04
2023-02-24T12:45:02.737Z,23.01
2023-02-24T12:47:45.739Z,20.64
2023-02-24T12:50:29.223Z,22.07
2023-02-24T12:53:04.701Z,21.28
2023-02-24T12:55:41.732Z,21.05
2023-02-24T12:58:15.050Z,21.32
2023-02-24T13:00:56.212Z,21.90
2023-02-24T13:03:40.779Z,21.60
2023-02-24T13:06:20.134Z,22.51
2023-02-24T13:08:57.164Z,22.11
2023-02-24T13:11:37.691Z,21.92
2023-02-24T13:14:15.478Z,21.84
2023-02-24T13:16:44.013Z,21.74
2023-02-24T13:19:23.227Z,21.67
2023-02-24T13:22:03.007Z,21.46
2023-02-24T13:24:31.370Z,20.90
2023-02-24T13:27:07.260Z,19.98
2023-02-24T13:29:45.922Z,20.24
2023-02-24T13:32:30.374Z,19.66
2023-02-24T13:35:02.432Z,20.86
2023-02-24T13:37:34.674Z,21.54
2023-02-24T13:40:22.855Z,21.01
2023-02-24T13:43:00.747Z,20.98
2023-02-24T13:45:30.208Z,20.45
2023-02-24T13:48:19.784Z,20.16
2023-02-24T13:51:06.198Z,20.14
2023-02-24T13:53:50.519Z,19.23
2023-02-24T13:56:31.525Z,19.52
2023-02-24T13:59:17.209Z,19.12
2023-02-24T14:01:52.225Z,19.16
2023-02-24T14:04:25.795Z,18.71
2023-02-24T14:07:01.047Z,18.98
2023-02-24T14:09:33.682Z,18.67
2023-02-24T14:12:07.351Z,18.07
2023-02-24T14:14:35.906Z,17.86
2023-02-24T14:17:04.187Z,17.63
2023-02-24T14:19:32.520Z,17.58
2023-02-24T14:22:02.673Z,18.29
2023-02-24T14:24:31.075Z,17.89
2023-02-24T14:27:00.619Z,18.71
2023-02-24T14:29:32.283Z,18.51
2023-02-24T14:32:01.610Z,18.11
2023-02-24T14:34:34.016Z,18.14
2023-02-24T14:37:05.543Z,18.51
2023-02-24T14:39:35.306Z,17.46
2023-02-24T14:42:13.814Z,16.93
2023-02-24T14:44:45.005Z,17.73
2023-02-24T14:47:15.536Z,17.57
2023-02-24T14:49:53.218Z,17.56
2023-02-24T14:52:37.124Z,17.48
2023-02-24T14:55:08.910Z,17.03
2023-02-24T14:57:45.256Z,16.41
2023-02-24T15:00:22.194Z,17.02
2023-02-24T15:02:55.153Z,17.08
2023-02-24T15:05:24.102Z,17.38
2023-02-24T15:07:54.009Z,17.55
2023-02-24T15:10:25.739Z,17.69
2023-02-24T15:13:00.749Z,17.41
2023-02-24T15:15:34.704Z,15.73
2023-02-24T15:18:11.282Z,16.43
2023-02-24T15:20:41.558Z,17.08
2023-02-24T15:23:27.788Z,16.54
2023-02-24T15:25:56.202Z,16.62
2023-02-24T15:28:27.011Z,16.91
2023-02-24T15:31:04.897Z,16.34
2023-02-24T15:33:38.835Z,16.72
2023-02-24T15:36:11.645Z,15.82
2023-02-24T15:38:44.101Z,15.33
2023-02-24T15:41:13.922Z,15.65
2023-02-24T15:44:08.552Z,15.51
2023-02-24T15:46:37.756Z,15.21
2023-02-24T15:49:06.768Z,15.04
2023-02-24T15:51:38.677Z,15.01
2023-02-24T15:54:12.661Z,15.74
2023-02-24T15:56:42.782Z,15.22
2023-02-24T15:59:14.894Z,15.03
2023-02-24T16:01:43.589Z,14.36
2023-02-24T16:04:12.040Z,14.86
2023-02-24T16:06:42.736Z,14.78
2023-02-24T16:09:15.794Z,15.20
2023-02-24T16:11:47.658Z,15.42
2023-02-24T16:14:19.341Z,15.30
2023-02-24T16:16:47.740Z,15.32
2023-02-24T16:19:17.134Z,15.30
2023-02-24T16:21:45.661Z,14.86
2023-02-24T16:24:15.324Z,14.60
2023-02-24T16:26:44.239Z,14.73
2023-02-24T16:29:16.044Z,14.83
2023-02-24T16:31:44.619Z,14.84
2023-02-24T16:34:16.210Z,14.29
2023-02-24T16:36:45.125Z,13.86
2023-02-24T16:39:15.294Z,14.23
2023-02-24T16:41:43.713Z,13.54
2023-02-24T16:44:12.068Z,13.75
2023-02-24T16:46:45.161Z,13.73
2023-02-24T16:49:19.405Z,14.02
2023-02-24T16:51:47.759Z,13.99
2023-02-24T16:54:17.375Z,14.26
2023-02-24T16:56:46.709Z,14.16
2023-02-24T16:59:15.225Z,14.29
2023-02-24T17:01:44.096Z,14.15
2023-02-24T17:04:14.473Z,14.04
2023-02-24T17:06:43.115Z,14.01
2023-02-24T17:09:15.750Z,13.61
2023-02-24T17:11:45.746Z,13.16
2023-02-24T17:14:17.879Z,13.85
2023-02-24T17:16:46.793Z,13.89
2023-02-24T17:19:15.443Z,13.38
2023-02-24T17:21:46.011Z,13.47
2023-02-24T17:24:16.760Z,13.26
2023-02-24T17:27:05.163Z,12.99
2023-02-24T17:29:33.574Z,13.36
2023-02-24T17:32:02.162Z,13.54
2023-02-24T17:34:30.622Z,13.46
2023-02-24T17:36:58.895Z,13.57
2023-02-24T17:39:27.478Z,13.49
2023-02-24T17:41:56.839Z,13.65
2023-02-24T17:44:26.811Z,13.60
2023-02-24T17:46:55.331Z,13.40
2023-02-24T17:49:23.640Z,13.41
2023-02-24T17:51:51.947Z,13.40
2023-02-24T17:54:20.281Z,13.29
2023-02-24T17:56:48.570Z,13.01
2023-02-24T17:59:16.862Z,12.12
2023-02-24T18:01:46.617Z,11.91
2023-02-24T18:04:15.384Z,12.10
2023-02-24T18:06:44.181Z,12.64
2023-02-24T18:09:12.997Z,12.89
2023-02-24T18:11:41.219Z,13.05
2023-02-24T18:14:09.611Z,13.07
2023-02-24T18:16:38.042Z,13.22
2023-02-24T18:19:08.042Z,13.14
2023-02-24T18:21:36.346Z,12.51
2023-02-24T18:24:04.939Z,12.80
2023-02-24T18:26:33.408Z,12.88
2023-02-24T18:29:02.857Z,12.34
2023-02-24T18:31:31.249Z,12.73
2023-02-24T18:34:00.540Z,12.94
2023-02-24T18:36:30.655Z,12.65
2023-02-24T18:38:59.452Z,12.56
2023-02-24T18:41:27.760Z,12.43
2023-02-24T18:43:59.352Z,12.49
2023-02-24T18:46:28.296Z,12.24
2023-02-24T18:48:57.577Z,12.21
2023-02-24T18:51:29.106Z,12.42
2023-02-24T18:54:00.540Z,12.56
2023-02-24T18:56:31.250Z,12.46
2023-02-24T18:59:01.694Z,11.99
2023-02-24T19:01:34.064Z,11.88
2023-02-24T19:04:03.318Z,11.81
2023-02-24T19:06:33.700Z,11.98
2023-02-24T19:09:06.172Z,11.68
2023-02-24T19:11:35.793Z,11.67
2023-02-24T19:14:04.724Z,11.48
2023-02-24T19:16:33.575Z,11.20
2023-02-24T19:19:02.434Z,11.12
2023-02-24T19:21:32.501Z,11.44
2023-02-24T19:24:03.902Z,11.52
2023-02-24T19:26:32.357Z,11.84
2023-02-24T19:29:00.749Z,11.91
2023-02-24T19:31:30.426Z,11.92
2023-02-24T19:34:00.996Z,11.94
2023-02-24T19:36:30.747Z,11.80
2023-02-24T19:38:59.049Z,11.83
2023-02-24T19:41:28.850Z,11.79
2023-02-24T19:43:57.284Z,11.87
2023-02-24T19:46:25.966Z,11.85
2023-02-24T19:48:57.925Z,11.68
2023-02-24T19:51:27.506Z,11.30
2023-02-24T19:53:57.802Z,11.64
2023-02-24T19:56:32.265Z,11.51
2023-02-24T19:59:02.000Z,11.42
2023-02-24T20:01:31.452Z,11.59
2023-02-24T20:04:02.376Z,11.69
2023-02-24T20:06:32.574Z,11.87
2023-02-24T20:09:01.760Z,11.01
2023-02-24T20:11:33.045Z,10.70
2023-02-24T20:14:01.306Z,11.31
2023-02-24T20:16:32.709Z,11.17
2023-02-24T20:19:01.470Z,11.45
2023-02-24T20:21:30.384Z,11.46
2023-02-24T20:24:01.594Z,11.51
2023-02-24T20:26:31.628Z,11.61
2023-02-24T20:29:01.518Z,11.82
2023-02-24T20:31:30.022Z,11.07
2023-02-24T20:33:58.371Z,11.45
2023-02-24T20:36:28.752Z,11.49
2023-02-24T20:39:00.100Z,11.11
2023-02-24T20:41:29.406Z,10.33
2023-02-24T20:43:59.146Z,11.14
2023-02-24T20:46:29.538Z,10.50
2023-02-24T20:48:59.427Z,10.33
2023-02-24T20:51:29.523Z,10.64
2023-02-24T20:53:58.707Z,11.15
2023-02-24T20:56:29.257Z,9.96
2023-02-24T20:59:02.249Z,10.40
2023-02-24T21:01:32.543Z,10.30
2023-02-24T21:04:01.764Z,10.71
2023-02-24T21:06:30.455Z,10.60
2023-02-24T21:08:59.043Z,10.72
2023-02-24T21:11:29.827Z,10.96
2023-02-24T21:14:00.147Z,11.18
2023-02-24T21:16:28.850Z,11.07
2023-02-24T21:18:58.920Z,10.59
2023-02-24T21:21:27.838Z,10.84
2023-02-24T21:23:56.759Z,10.01
2023-02-24T21:26:27.147Z,10.65
2023-02-24T21:28:57.931Z,10.96
2023-02-24T21:31:28.894Z,11.13
2023-02-24T21:33:57.588Z,11.14
2023-02-24T21:36:28.166Z,11.13
2023-02-24T21:38:56.621Z,10.62
2023-02-24T21:41:25.257Z,10.30
2023-02-24T21:43:55.757Z,10.75
2023-02-24T21:46:28.568Z,10.26
2023-02-24T21:48:59.583Z,10.83
2023-02-24T21:51:29.717Z,10.45
2023-02-24T21:53:58.596Z,10.81
2023-02-24T21:56:29.531Z,10.93
2023-02-24T21:59:00.179Z,10.91
2023-02-24T22:01:30.604Z,11.18
2023-02-24T22:04:02.875Z,11.39
2023-02-24T22:06:33.333Z,10.78
2023-02-24T22:09:02.047Z,10.95
2023-02-24T22:11:32.452Z,10.69
2023-02-24T22:14:00.641Z,11.05
2023-02-24T22:16:29.576Z,11.13
2023-02-24T22:18:58.031Z,10.80
2023-02-24T22:21:29.313Z,11.09
2023-02-24T22:24:00.887Z,10.95
2023-02-24T22:26:30.330Z,11.10
2023-02-24T22:28:59.138Z,10.65
2023-02-24T22:31:29.820Z,10.33
2023-02-24T22:33:59.927Z,10.23
2023-02-24T22:36:31.815Z,10.49
2023-02-24T22:39:01.236Z,11.08
2023-02-24T22:41:31.740Z,10.58
2023-02-24T22:44:00.804Z,9.94
2023-02-24T22:46:31.576Z,10.07
2023-02-24T22:49:00.601Z,10.38
2023-02-24T22:51:30.942Z,10.43
2023-02-24T22:53:59.307Z,10.70
2023-02-24T22:56:29.887Z,10.95
2023-02-24T22:58:58.843Z,10.63
2023-02-24T23:01:29.223Z,10.92
2023-02-24T23:04:00.783Z,10.91
2023-02-24T23:06:31.561Z,10.92
2023-02-24T23:09:01.481Z,10.84
2023-02-24T23:11:31.140Z,10.82
2023-02-24T23:14:01.726Z,10.80
2023-02-24T23:16:31.973Z,10.71
2023-02-24T23:19:04.399Z,10.89
2023-02-24T23:21:36.093Z,10.86
2023-02-24T23:24:04.709Z,9.97
2023-02-24T23:26:34.059Z,9.63
2023-02-24T23:29:03.072Z,10.10
2023-02-24T23:31:32.104Z,10.22
2023-02-24T23:34:01.701Z,10.22
2023-02-24T23:36:30.173Z,10.57
2023-02-24T23:38:59.863Z,10.42
2023-02-24T23:41:28.224Z,9.94
2023-02-24T23:43:56.475Z,10.32
2023-02-24T23:46:24.937Z,10.70
2023-02-24T23:48:54.117Z,10.54
2023-02-24T23:51:22.943Z,10.35
2023-02-24T23:53:51.793Z,10.20
2023-02-24T23:56:23.505Z,10.32
2023-02-24T23:58:52.998Z,10.34
